Time;durP1;ratioP1;P1;durP2;ratioP2;P2;SDS_P1;SDS_P2;PMS_P1;PMS_P2;Temp;Humidity;BMP_temperature;BMP_pressure;BME280_temperature;BME280_humidity;BME280_pressure;Samples;Min_cycle;Max_cycle;Signal;HPM_P1;HPM_P2
2022/05/03 00:00:42;;;;;;;13.17;9.00;;;;;;;;;;4975865;28;20502;-74
2022/05/03 00:03:19;;;;;;;15.60;9.93;;;;;;;;;;4975369;28;20459;-74
2022/05/03 00:05:53;;;;;;;14.47;9.10;;;;;;;;;;4975563;28;20412;-77
2022/05/03 00:08:28;;;;;;;10.73;9.63;;;;;;;;;;4974455;28;20462;-74
2022/05/03 00:11:26;;;;;;;13.00;9.37;;;;;;;;;;4958809;28;20181;-73
2022/05/03 00:14:02;;;;;;;10.88;9.13;;;;;;;;;;4942607;28;20451;-75
2022/05/03 00:16:28;;;;;;;11.20;9.43;;;;;;;;;;4974054;28;20688;-76
2022/05/03 00:18:54;;;;;;;11.00;9.83;;;;;;;;;;4973374;28;20181;-75
2022/05/03 00:21:21;;;;;;;14.10;10.50;;;;;;;;;;4974445;28;20990;-74
2022/05/03 00:23:47;;;;;;;13.25;9.93;;;;;;;;;;4974039;28;20440;-74
2022/05/03 00:26:13;;;;;;;13.13;10.20;;;;;;;;;;4973266;28;20511;-74
2022/05/03 00:28:39;;;;;;;15.73;9.80;;;;;;;;;;4974513;28;20176;-75
2022/05/03 00:31:06;;;;;;;13.52;10.68;;;;;;;;;;4957489;28;20255;-74
2022/05/03 00:33:35;;;;;;;11.53;9.90;;;;;;;;;;4973980;28;20199;-73
2022/05/03 00:36:01;;;;;;;12.37;10.03;;;;;;;;;;4957174;28;20784;-74
2022/05/03 00:38:27;;;;;;;11.77;10.47;;;;;;;;;;4974366;28;20408;-75
2022/05/03 00:40:56;;;;;;;15.00;10.55;;;;;;;;;;4974119;28;20412;-75
2022/05/03 00:43:25;;;;;;;13.82;10.63;;;;;;;;;;4973803;28;20255;-74
2022/05/03 00:45:55;;;;;;;15.02;9.80;;;;;;;;;;4974110;28;20183;-74
2022/05/03 00:48:29;;;;;;;11.65;10.15;;;;;;;;;;4974292;28;20266;-75
2022/05/03 00:51:15;;;;;;;11.75;10.55;;;;;;;;;;4974279;28;20177;-75
2022/05/03 00:54:04;;;;;;;14.25;11.05;;;;;;;;;;4973692;28;20199;-74
2022/05/03 00:56:49;;;;;;;13.45;10.13;;;;;;;;;;4973968;28;20184;-76
2022/05/03 00:59:24;;;;;;;15.80;10.75;;;;;;;;;;4974360;28;20180;-74
2022/05/03 01:01:50;;;;;;;20.27;10.90;;;;;;;;;;4974214;28;20601;-75
2022/05/03 01:04:22;;;;;;;13.20;10.90;;;;;;;;;;4956112;28;20432;-75
2022/05/03 01:06:51;;;;;;;12.80;10.70;;;;;;;;;;4973957;28;20413;-74
2022/05/03 01:09:23;;;;;;;14.05;10.95;;;;;;;;;;4973853;28;20832;-73
2022/05/03 01:11:59;;;;;;;13.25;10.85;;;;;;;;;;4973912;28;20260;-76
2022/05/03 01:17:14;;;;;;;14.35;11.88;;;;;;;;;;5090848;27;20549;-76
2022/05/03 01:20:00;;;;;;;11.73;10.40;;;;;;;;;;5090880;28;20199;-75
2022/05/03 01:22:32;;;;;;;12.85;10.48;;;;;;;;;;5089409;28;20184;-75
2022/05/03 01:25:15;;;;;;;15.20;11.93;;;;;;;;;;5090350;28;20196;-75
2022/05/03 01:28:02;;;;;;;18.50;11.93;;;;;;;;;;5090726;28;20201;-75
2022/05/03 01:30:30;;;;;;;15.23;10.70;;;;;;;;;;5069066;28;20239;-74
2022/05/03 01:32:58;;;;;;;13.50;11.35;;;;;;;;;;5090286;28;20192;-74
2022/05/03 01:35:25;;;;;;;15.25;11.70;;;;;;;;;;5090285;28;20248;-76
2022/05/03 01:38:02;;;;;;;13.07;11.07;;;;;;;;;;5089110;28;20545;-75
2022/05/03 01:40:38;;;;;;;12.18;10.20;;;;;;;;;;5090145;28;20534;-77
2022/05/03 01:43:07;;;;;;;12.23;9.98;;;;;;;;;;5089863;28;20172;-75
2022/05/03 01:45:37;;;;;;;12.27;10.70;;;;;;;;;;5090279;28;20191;-74
2022/05/03 01:48:22;;;;;;;14.90;10.38;;;;;;;;;;5090217;28;20195;-74
2022/05/03 01:51:01;;;;;;;18.48;11.90;;;;;;;;;;5090142;28;20189;-77
2022/05/03 01:53:40;;;;;;;11.88;10.68;;;;;;;;;;5089686;28;20196;-74
2022/05/03 01:56:15;;;;;;;18.50;11.00;;;;;;;;;;5090287;28;20204;-76
2022/05/03 01:58:44;;;;;;;13.75;11.50;;;;;;;;;;5089837;28;20180;-75
2022/05/03 02:01:29;;;;;;;16.25;12.90;;;;;;;;;;5089943;28;20254;-74
2022/05/03 02:04:03;;;;;;;11.85;10.27;;;;;;;;;;5089561;28;20193;-74
2022/05/03 02:06:32;;;;;;;14.10;10.60;;;;;;;;;;5089926;28;20173;-74
2022/05/03 02:09:03;;;;;;;11.65;9.93;;;;;;;;;;5089683;28;20578;-75
2022/05/03 02:11:46;;;;;;;14.68;10.10;;;;;;;;;;5090267;28;20199;-75
2022/05/03 02:14:44;;;;;;;17.77;11.85;;;;;;;;;;5089526;28;20192;-74
2022/05/03 02:17:28;;;;;;;11.32;10.13;;;;;;;;;;5088619;28;20185;-75
2022/05/03 02:19:54;;;;;;;17.52;12.10;;;;;;;;;;5089528;28;20222;-75
2022/05/03 02:22:39;;;;;;;11.90;10.50;;;;;;;;;;5089555;28;20263;-74
2022/05/03 02:25:27;;;;;;;14.98;11.98;;;;;;;;;;5089092;28;20414;-76
2022/05/03 02:28:13;;;;;;;14.38;11.55;;;;;;;;;;5079373;28;20195;-74
2022/05/03 02:30:40;;;;;;;14.82;11.25;;;;;;;;;;5074465;28;20541;-74
2022/05/03 02:33:14;;;;;;;15.10;11.88;;;;;;;;;;5075373;28;20182;-74
2022/05/03 02:35:44;;;;;;;14.07;10.35;;;;;;;;;;5075770;28;20746;-73
2022/05/03 02:38:13;;;;;;;19.20;11.10;;;;;;;;;;5075893;28;20165;-76
2022/05/03 02:40:46;;;;;;;13.73;11.18;;;;;;;;;;5074443;28;20268;-75
2022/05/03 02:43:15;;;;;;;16.67;12.32;;;;;;;;;;5075308;28;20165;-73
2022/05/03 02:45:44;;;;;;;14.35;10.10;;;;;;;;;;5075780;28;20536;-73
2022/05/03 02:48:13;;;;;;;13.38;10.57;;;;;;;;;;5075597;28;20181;-74
2022/05/03 02:50:51;;;;;;;17.70;10.27;;;;;;;;;;5075605;28;20181;-75
2022/05/03 02:53:17;;;;;;;13.55;11.15;;;;;;;;;;5075106;28;20180;-75
2022/05/03 02:56:01;;;;;;;17.47;10.57;;;;;;;;;;5075381;28;20202;-74
2022/05/03 02:58:45;;;;;;;13.85;11.18;;;;;;;;;;5075520;28;20891;-74
2022/05/03 03:01:48;;;;;;;15.10;11.23;;;;;;;;;;5075121;28;20177;-75
2022/05/03 03:04:27;;;;;;;14.07;10.50;;;;;;;;;;5075253;28;20698;-74
2022/05/03 03:06:55;;;;;;;13.48;10.30;;;;;;;;;;5075273;28;20177;-74
2022/05/03 03:09:37;;;;;;;11.15;9.55;;;;;;;;;;5073679;28;20182;-74
2022/05/03 03:12:03;;;;;;;15.27;11.00;;;;;;;;;;5075432;28;20215;-74
2022/05/03 03:14:48;;;;;;;15.93;10.30;;;;;;;;;;5073557;28;20205;-75
2022/05/03 03:17:23;;;;;;;12.23;9.82;;;;;;;;;;5075160;28;20185;-73
2022/05/03 03:19:52;;;;;;;15.00;10.60;;;;;;;;;;5075045;28;20168;-74
2022/05/03 03:22:20;;;;;;;10.55;9.45;;;;;;;;;;5075046;28;20166;-75
2022/05/03 03:24:47;;;;;;;13.52;10.10;;;;;;;;;;5074532;28;20232;-75
2022/05/03 03:27:14;;;;;;;14.48;10.18;;;;;;;;;;5074757;28;20180;-74
2022/05/03 03:29:40;;;;;;;10.70;9.63;;;;;;;;;;5074751;28;20185;-75
2022/05/03 03:32:07;;;;;;;16.45;9.45;;;;;;;;;;5074692;28;20645;-75
2022/05/03 03:34:33;;;;;;;16.95;10.23;;;;;;;;;;5074345;28;20329;-75
2022/05/03 03:37:04;;;;;;;14.15;9.80;;;;;;;;;;5074610;28;20255;-74
2022/05/03 03:39:31;;;;;;;11.77;9.95;;;;;;;;;;5073454;28;20169;-76
2022/05/03 03:42:01;;;;;;;12.75;10.43;;;;;;;;;;5074502;28;20174;-75
2022/05/03 03:44:27;;;;;;;14.63;10.90;;;;;;;;;;5074281;28;20566;-76
2022/05/03 03:46:54;;;;;;;12.40;9.63;;;;;;;;;;5073315;28;20272;-75
2022/05/03 03:49:21;;;;;;;17.33;10.75;;;;;;;;;;5074182;28;20407;-77
2022/05/03 03:51:48;;;;;;;12.55;10.52;;;;;;;;;;5074177;28;20535;-74
2022/05/03 03:54:14;;;;;;;19.33;11.25;;;;;;;;;;5074147;28;20216;-75
2022/05/03 03:56:40;;;;;;;19.25;10.70;;;;;;;;;;5073278;28;20209;-75
2022/05/03 03:59:07;;;;;;;17.00;11.20;;;;;;;;;;5074467;28;20177;-75
2022/05/03 04:01:33;;;;;;;15.25;12.18;;;;;;;;;;5073959;28;20266;-75
2022/05/03 04:04:00;;;;;;;18.13;12.17;;;;;;;;;;5073748;28;20239;-75
2022/05/03 04:06:26;;;;;;;17.15;11.23;;;;;;;;;;5060777;28;20417;-75
2022/05/03 04:08:52;;;;;;;20.13;11.70;;;;;;;;;;5057266;28;20182;-75
2022/05/03 04:11:18;;;;;;;15.88;11.35;;;;;;;;;;5054128;28;20834;-75
2022/05/03 04:13:45;;;;;;;20.25;11.40;;;;;;;;;;5053387;28;20563;-75
2022/05/03 04:16:11;;;;;;;14.35;11.05;;;;;;;;;;5053533;28;20209;-75
2022/05/03 04:18:46;;;;;;;18.65;11.85;;;;;;;;;;5066548;28;20174;-75
2022/05/03 04:21:13;;;;;;;13.20;11.68;;;;;;;;;;5073962;28;20172;-75
2022/05/03 04:23:39;;;;;;;16.02;12.65;;;;;;;;;;5073175;28;20601;-74
2022/05/03 04:26:05;;;;;;;13.93;11.50;;;;;;;;;;5072233;28;20208;-75
2022/05/03 04:28:31;;;;;;;16.77;12.83;;;;;;;;;;5073792;28;20806;-74
2022/05/03 04:30:57;;;;;;;14.80;12.27;;;;;;;;;;5073792;28;20426;-75
2022/05/03 04:33:23;;;;;;;18.67;12.57;;;;;;;;;;5073202;28;20502;-75
2022/05/03 04:35:49;;;;;;;18.20;13.43;;;;;;;;;;5063540;28;20472;-74
2022/05/03 04:38:15;;;;;;;17.03;12.93;;;;;;;;;;5053494;28;20879;-75
2022/05/03 04:40:41;;;;;;;19.27;12.07;;;;;;;;;;5053078;28;20417;-75
2022/05/03 04:43:07;;;;;;;16.67;12.20;;;;;;;;;;5052888;28;20209;-75
2022/05/03 04:45:33;;;;;;;16.35;11.25;;;;;;;;;;5053451;28;20535;-74
2022/05/03 04:47:59;;;;;;;16.57;11.73;;;;;;;;;;5053102;28;20186;-75
2022/05/03 04:50:25;;;;;;;13.60;11.07;;;;;;;;;;5069004;28;20946;-75
2022/05/03 04:52:51;;;;;;;13.17;11.37;;;;;;;;;;5073407;28;20407;-75
2022/05/03 04:55:17;;;;;;;17.90;12.05;;;;;;;;;;5073362;28;20584;-74
2022/05/03 04:57:43;;;;;;;16.30;12.10;;;;;;;;;;5071774;28;20529;-74
2022/05/03 05:00:09;;;;;;;15.63;11.17;;;;;;;;;;5073198;28;20184;-75
2022/05/03 05:02:37;;;;;;;15.50;12.35;;;;;;;;;;5055533;28;20435;-74
2022/05/03 05:05:03;;;;;;;13.95;11.20;;;;;;;;;;5052804;28;20275;-75
2022/05/03 05:07:29;;;;;;;14.48;11.05;;;;;;;;;;5053343;28;20170;-75
2022/05/03 05:12:39;;;;;;;15.75;11.35;;;;;;;;;;5053228;28;20422;-75
2022/05/03 05:15:05;;;;;;;13.27;11.40;;;;;;;;;;5056162;28;20208;-75
2022/05/03 05:17:34;;;;;;;13.80;10.70;;;;;;;;;;5073134;28;20537;-75
2022/05/03 05:20:00;;;;;;;15.63;12.18;;;;;;;;;;5072957;28;20173;-73
2022/05/03 05:22:26;;;;;;;19.37;12.10;;;;;;;;;;5073015;28;20184;-75
2022/05/03 05:24:52;;;;;;;13.40;10.90;;;;;;;;;;5072573;28;20518;-75
2022/05/03 05:27:18;;;;;;;15.83;10.20;;;;;;;;;;5073108;28;20896;-75
2022/05/03 05:29:44;;;;;;;18.07;11.37;;;;;;;;;;5069400;28;20428;-75
2022/05/03 05:32:10;;;;;;;17.70;12.20;;;;;;;;;;5052803;28;20424;-75
2022/05/03 05:34:36;;;;;;;16.45;11.43;;;;;;;;;;5052638;28;20466;-74
2022/05/03 05:37:02;;;;;;;14.67;11.27;;;;;;;;;;5052814;28;20584;-75
2022/05/03 05:39:29;;;;;;;19.73;11.65;;;;;;;;;;5052866;28;20404;-74
2022/05/03 05:41:56;;;;;;;18.58;11.05;;;;;;;;;;5052726;28;20174;-75
2022/05/03 05:44:22;;;;;;;14.07;10.20;;;;;;;;;;5061802;28;20204;-74
2022/05/03 05:46:48;;;;;;;14.65;10.50;;;;;;;;;;5072344;28;20212;-74
2022/05/03 05:49:14;;;;;;;11.55;10.13;;;;;;;;;;5072794;28;20173;-75
2022/05/03 05:51:40;;;;;;;13.73;10.07;;;;;;;;;;5072801;28;20585;-75
2022/05/03 05:54:07;;;;;;;15.27;10.30;;;;;;;;;;5072308;28;20566;-75
2022/05/03 05:56:33;;;;;;;19.08;10.52;;;;;;;;;;5072203;28;20203;-74
2022/05/03 05:58:58;;;;;;;17.90;10.10;;;;;;;;;;5072107;28;20733;-75
2022/05/03 06:01:35;;;;;;;19.83;10.37;;;;;;;;;;5070523;28;20411;-75
2022/05/03 06:04:01;;;;;;;11.25;9.55;;;;;;;;;;5075631;28;20415;-76
2022/05/03 06:06:27;;;;;;;12.10;10.80;;;;;;;;;;5074603;28;20208;-75
2022/05/03 06:08:53;;;;;;;10.40;9.27;;;;;;;;;;5074427;28;20435;-75
2022/05/03 06:11:19;;;;;;;13.88;9.98;;;;;;;;;;5075719;28;20416;-75
2022/05/03 06:13:45;;;;;;;16.98;9.85;;;;;;;;;;5072350;28;20559;-75
2022/05/03 06:16:12;;;;;;;13.80;9.70;;;;;;;;;;5055262;28;20213;-75
2022/05/03 06:18:38;;;;;;;21.23;10.48;;;;;;;;;;5055371;28;20412;-75
2022/05/03 06:21:07;;;;;;;15.65;10.35;;;;;;;;;;5055556;28;20664;-75
2022/05/03 06:23:33;;;;;;;14.00;10.48;;;;;;;;;;5055284;28;20186;-74
2022/05/03 06:25:59;;;;;;;15.60;9.65;;;;;;;;;;5055514;28;20210;-75
2022/05/03 06:28:25;;;;;;;13.30;9.65;;;;;;;;;;5062479;28;20620;-75
2022/05/03 06:30:51;;;;;;;12.53;9.27;;;;;;;;;;5061695;28;20268;-75
2022/05/03 06:33:17;;;;;;;12.75;9.35;;;;;;;;;;5075061;28;20767;-74
2022/05/03 06:35:43;;;;;;;14.63;9.03;;;;;;;;;;5073990;28;20216;-74
2022/05/03 06:38:09;;;;;;;13.80;8.50;;;;;;;;;;5075344;28;20416;-75
2022/05/03 06:40:35;;;;;;;13.83;9.73;;;;;;;;;;5056101;28;20456;-75
2022/05/03 06:43:01;;;;;;;15.90;8.98;;;;;;;;;;5055130;28;20834;-75
2022/05/03 06:45:27;;;;;;;12.23;9.17;;;;;;;;;;5055166;28;20582;-75
2022/05/03 06:47:53;;;;;;;14.13;9.70;;;;;;;;;;5055134;28;20436;-75
2022/05/03 06:50:19;;;;;;;11.87;9.13;;;;;;;;;;5055071;28;20420;-76
2022/05/03 06:52:45;;;;;;;10.97;9.40;;;;;;;;;;5058126;28;20510;-76
2022/05/03 06:55:11;;;;;;;10.20;8.87;;;;;;;;;;5074051;28;20463;-75
2022/05/03 06:57:37;;;;;;;10.73;8.20;;;;;;;;;;5058704;28;20421;-75
2022/05/03 07:00:05;;;;;;;11.77;9.07;;;;;;;;;;5073705;28;20872;-75
2022/05/03 07:02:34;;;;;;;14.13;8.57;;;;;;;;;;5074709;28;20943;-75
2022/05/03 07:05:01;;;;;;;11.57;8.60;;;;;;;;;;5074312;28;20483;-75
2022/05/03 07:07:28;;;;;;;14.00;9.53;;;;;;;;;;5074821;28;20468;-76
2022/05/03 07:09:54;;;;;;;11.53;8.20;;;;;;;;;;5073264;28;20408;-76
2022/05/03 07:12:20;;;;;;;12.40;8.70;;;;;;;;;;5074571;28;20893;-75
2022/05/03 07:14:46;;;;;;;29.13;8.70;;;;;;;;;;5073922;28;20448;-76
2022/05/03 07:22:45;;;;;;;20.50;8.00;;;;;;;;;;5073238;28;20601;-75
2022/05/03 07:22:45;;;;;;;9.97;7.87;;;;;;;;;;5074833;28;20399;-75
2022/05/03 07:25:11;;;;;;;11.50;7.77;;;;;;;;;;5074146;28;20427;-76
2022/05/03 07:27:37;;;;;;;10.23;7.27;;;;;;;;;;5074517;28;20407;-76
2022/05/03 07:30:03;;;;;;;13.40;7.87;;;;;;;;;;5056568;28;20934;-76
2022/05/03 07:32:29;;;;;;;12.20;7.67;;;;;;;;;;5073008;28;20424;-75
2022/05/03 07:34:55;;;;;;;11.27;7.73;;;;;;;;;;5072286;28;20407;-75
2022/05/03 07:37:21;;;;;;;12.27;8.10;;;;;;;;;;5074045;28;20766;-76
2022/05/03 07:39:47;;;;;;;9.70;7.60;;;;;;;;;;5074166;28;20408;-75
2022/05/03 07:42:13;;;;;;;11.03;8.00;;;;;;;;;;5074162;28;20434;-76
2022/05/03 07:44:39;;;;;;;14.53;7.80;;;;;;;;;;5073602;28;20804;-75
2022/05/03 07:47:06;;;;;;;9.17;7.50;;;;;;;;;;5072558;28;20480;-76
2022/05/03 07:49:31;;;;;;;10.03;7.73;;;;;;;;;;5073989;28;20408;-75
2022/05/03 07:51:58;;;;;;;10.00;7.43;;;;;;;;;;5073927;28;20408;-75
2022/05/03 07:54:24;;;;;;;11.97;7.57;;;;;;;;;;5073573;28;20481;-75
2022/05/03 07:56:50;;;;;;;14.20;7.60;;;;;;;;;;5072495;28;20463;-75
2022/05/03 07:59:16;;;;;;;8.23;7.27;;;;;;;;;;5073943;28;20411;-75
2022/05/03 08:01:42;;;;;;;11.23;7.10;;;;;;;;;;5073724;28;20765;-74
2022/05/03 08:04:08;;;;;;;8.37;6.57;;;;;;;;;;5072114;28;20427;-75
2022/05/03 08:06:35;;;;;;;13.03;6.70;;;;;;;;;;5072591;28;20419;-75
2022/05/03 08:09:01;;;;;;;10.07;6.40;;;;;;;;;;5073732;28;20407;-75
2022/05/03 08:11:27;;;;;;;8.10;6.80;;;;;;;;;;5073535;28;20415;-75
2022/05/03 08:13:53;;;;;;;6.43;5.80;;;;;;;;;;5071900;28;20831;-75
2022/05/03 08:16:20;;;;;;;9.50;6.40;;;;;;;;;;5073213;28;20455;-75
2022/05/03 08:18:47;;;;;;;6.90;6.20;;;;;;;;;;5073618;28;20382;-75
2022/05/03 08:21:13;;;;;;;9.33;6.40;;;;;;;;;;5073219;28;20410;-76
2022/05/03 08:23:39;;;;;;;6.53;5.40;;;;;;;;;;5072855;28;20403;-75
2022/05/03 08:26:05;;;;;;;6.00;5.40;;;;;;;;;;5072911;28;20469;-75
2022/05/03 08:28:31;;;;;;;8.20;5.07;;;;;;;;;;5073149;28;20411;-75
2022/05/03 08:30:58;;;;;;;10.63;5.67;;;;;;;;;;5073039;28;20374;-74
2022/05/03 08:33:24;;;;;;;5.70;5.07;;;;;;;;;;5072499;28;20477;-75
2022/05/03 08:35:50;;;;;;;7.10;5.23;;;;;;;;;;5072967;28;20510;-75
2022/05/03 08:43:45;;;;;;;7.50;4.77;;;;;;;;;;5072744;28;20791;-75
2022/05/03 08:46:12;;;;;;;5.53;4.00;;;;;;;;;;5072964;28;20445;-75
2022/05/03 08:48:44;;;;;;;7.20;4.73;;;;;;;;;;5072879;28;20499;-76
2022/05/03 08:51:11;;;;;;;4.97;4.43;;;;;;;;;;5072918;28;20419;-75
2022/05/03 08:53:39;;;;;;;6.03;4.80;;;;;;;;;;5072176;28;20454;-75
2022/05/03 08:56:05;;;;;;;6.47;4.73;;;;;;;;;;5072928;28;20452;-75
2022/05/03 08:58:31;;;;;;;5.80;3.93;;;;;;;;;;5073029;28;20426;-75
2022/05/03 09:00:57;;;;;;;8.40;4.50;;;;;;;;;;5072901;28;20412;-75
2022/05/03 09:03:24;;;;;;;5.60;4.40;;;;;;;;;;5072271;28;20442;-75
2022/05/03 09:05:52;;;;;;;4.47;4.07;;;;;;;;;;5072632;28;20412;-76
2022/05/03 09:08:23;;;;;;;4.40;3.90;;;;;;;;;;5072855;28;20414;-75
2022/05/03 09:10:49;;;;;;;7.00;3.87;;;;;;;;;;5072865;28;20790;-74
2022/05/03 09:13:18;;;;;;;7.30;4.30;;;;;;;;;;5071413;28;20790;-75
2022/05/03 09:15:44;;;;;;;7.87;4.80;;;;;;;;;;5071875;28;20462;-76
2022/05/03 09:18:19;;;;;;;5.23;3.60;;;;;;;;;;5072901;28;20771;-75
2022/05/03 09:26:22;;;;;;;5.80;4.23;;;;;;;;;;5072555;28;20423;-76
2022/05/03 09:28:52;;;;;;;5.80;4.23;;;;;;;;;;5072461;28;20748;-74
2022/05/03 09:31:30;;;;;;;6.97;4.43;;;;;;;;;;5072511;28;20448;-74
2022/05/03 09:33:57;;;;;;;7.10;4.03;;;;;;;;;;5071738;28;20808;-75
2022/05/03 09:36:23;;;;;;;7.70;4.90;;;;;;;;;;5072359;28;20470;-74
2022/05/03 09:38:54;;;;;;;7.00;4.07;;;;;;;;;;5076053;28;20814;-75
2022/05/03 09:41:21;;;;;;;7.80;5.03;;;;;;;;;;5074627;28;20396;-75
2022/05/03 09:44:05;;;;;;;10.33;4.60;;;;;;;;;;5065769;28;20551;-75
2022/05/03 09:46:49;;;;;;;7.23;3.70;;;;;;;;;;5060869;28;20415;-74
2022/05/03 09:49:17;;;;;;;5.00;4.60;;;;;;;;;;5065906;28;20721;-75
2022/05/03 09:51:43;;;;;;;7.27;4.33;;;;;;;;;;5065695;28;20400;-75
2022/05/03 09:54:10;;;;;;;12.70;4.17;;;;;;;;;;5062869;28;20465;-75
2022/05/03 09:56:37;;;;;;;4.80;4.40;;;;;;;;;;5073050;28;20548;-75
2022/05/03 09:59:04;;;;;;;8.20;4.73;;;;;;;;;;5067505;28;20425;-75
2022/05/03 10:01:30;;;;;;;6.83;5.00;;;;;;;;;;5066046;28;20397;-74
2022/05/03 10:03:57;;;;;;;5.27;4.40;;;;;;;;;;5063669;28;20463;-75
2022/05/03 10:06:23;;;;;;;6.43;4.50;;;;;;;;;;5065831;28;20507;-73
2022/05/03 10:08:51;;;;;;;9.00;5.37;;;;;;;;;;5075934;28;20442;-74
2022/05/03 10:11:17;;;;;;;6.53;4.07;;;;;;;;;;5076065;28;20462;-75
2022/05/03 10:13:43;;;;;;;5.97;4.63;;;;;;;;;;5064122;28;20833;-75
2022/05/03 10:21:41;;;;;;;6.00;4.90;;;;;;;;;;5054988;28;20403;-75
2022/05/03 10:24:11;;;;;;;5.23;4.73;;;;;;;;;;5065641;28;20472;-75
2022/05/03 10:26:58;;;;;;;7.87;4.83;;;;;;;;;;5064636;28;20435;-75
2022/05/03 10:29:25;;;;;;;8.87;5.00;;;;;;;;;;5065389;28;20443;-75
2022/05/03 10:31:54;;;;;;;7.60;6.90;;;;;;;;;;5064110;28;20593;-75
2022/05/03 10:34:38;;;;;;;7.00;4.50;;;;;;;;;;5063571;28;20444;-74
2022/05/03 10:37:05;;;;;;;7.20;5.60;;;;;;;;;;5063320;28;20495;-74
2022/05/03 10:39:32;;;;;;;5.53;4.50;;;;;;;;;;5063748;28;20830;-75
2022/05/03 10:41:59;;;;;;;9.07;4.97;;;;;;;;;;5064948;28;20775;-75
2022/05/03 10:44:39;;;;;;;8.97;5.10;;;;;;;;;;5065102;28;20442;-75
2022/05/03 10:47:05;;;;;;;6.40;5.10;;;;;;;;;;5064275;28;20419;-75
2022/05/03 10:49:31;;;;;;;10.00;6.03;;;;;;;;;;5059722;28;20969;-75
2022/05/03 10:51:57;;;;;;;7.30;5.03;;;;;;;;;;5065482;28;20408;-75
2022/05/03 10:54:23;;;;;;;7.53;5.60;;;;;;;;;;5062318;28;21026;-74
2022/05/03 10:57:07;;;;;;;9.73;5.80;;;;;;;;;;5063626;28;20452;-75
2022/05/03 10:59:46;;;;;;;8.60;6.10;;;;;;;;;;5064352;28;20917;-75
2022/05/03 11:02:12;;;;;;;10.00;5.37;;;;;;;;;;5064343;28;20467;-75
2022/05/03 11:04:57;;;;;;;6.63;4.90;;;;;;;;;;5062144;28;20443;-76
2022/05/03 11:07:24;;;;;;;6.33;5.73;;;;;;;;;;5065456;28;20998;-75
2022/05/03 11:09:50;;;;;;;8.50;5.80;;;;;;;;;;5063849;28;20482;-75
2022/05/03 11:12:16;;;;;;;6.90;5.77;;;;;;;;;;5064230;28;20412;-74
2022/05/03 11:14:44;;;;;;;6.73;5.60;;;;;;;;;;5056832;28;20468;-74
2022/05/03 11:17:11;;;;;;;6.60;5.97;;;;;;;;;;5063792;28;20459;-74
2022/05/03 11:19:48;;;;;;;7.37;6.00;;;;;;;;;;5064094;28;20433;-75
2022/05/03 11:22:15;;;;;;;7.77;6.97;;;;;;;;;;5066565;28;20403;-75
2022/05/03 11:24:43;;;;;;;7.83;6.37;;;;;;;;;;5073990;28;20961;-75
2022/05/03 11:27:09;;;;;;;5.63;4.80;;;;;;;;;;5068568;28;20511;-73
2022/05/03 11:29:36;;;;;;;6.53;5.73;;;;;;;;;;5062842;28;20507;-74
2022/05/03 11:32:06;;;;;;;6.33;5.73;;;;;;;;;;5067036;28;20424;-76
2022/05/03 11:34:32;;;;;;;9.03;5.20;;;;;;;;;;5063347;28;20478;-75
2022/05/03 11:36:58;;;;;;;6.37;5.77;;;;;;;;;;5064216;28;20463;-75
2022/05/03 11:39:25;;;;;;;8.63;5.07;;;;;;;;;;5063044;28;20413;-75
2022/05/03 11:41:51;;;;;;;6.93;4.90;;;;;;;;;;5063640;28;20421;-73
2022/05/03 11:44:18;;;;;;;6.60;6.00;;;;;;;;;;5064308;28;20423;-75
2022/05/03 11:46:45;;;;;;;6.67;5.80;;;;;;;;;;5062481;28;20419;-74
2022/05/03 11:49:12;;;;;;;6.33;5.73;;;;;;;;;;5060647;28;20880;-74
2022/05/03 11:57:10;;;;;;;6.90;5.23;;;;;;;;;;5053606;28;20675;-74
2022/05/03 11:59:36;;;;;;;5.10;4.60;;;;;;;;;;5053049;28;20447;-72
2022/05/03 12:02:17;;;;;;;7.23;6.27;;;;;;;;;;5052621;28;20417;-74
2022/05/03 12:05:02;;;;;;;8.27;6.40;;;;;;;;;;5053213;28;20436;-76
2022/05/03 12:07:28;;;;;;;7.10;6.00;;;;;;;;;;5053830;28;20481;-74
2022/05/03 12:09:54;;;;;;;6.37;5.80;;;;;;;;;;5052445;28;20413;-74
2022/05/03 12:12:45;;;;;;;6.27;5.40;;;;;;;;;;5053824;28;20412;-74
2022/05/03 12:15:15;;;;;;;5.53;5.03;;;;;;;;;;5053310;28;20444;-74
2022/05/03 12:17:59;;;;;;;8.60;5.73;;;;;;;;;;5053672;28;20497;-74
2022/05/03 12:20:26;;;;;;;6.70;5.67;;;;;;;;;;5053676;28;20404;-74
2022/05/03 12:23:10;;;;;;;8.63;5.60;;;;;;;;;;5053072;28;20413;-75
2022/05/03 12:25:38;;;;;;;9.43;6.23;;;;;;;;;;5052222;28;20936;-74
2022/05/03 12:28:07;;;;;;;7.00;5.80;;;;;;;;;;5053355;28;20408;-74
2022/05/03 12:30:33;;;;;;;9.43;6.43;;;;;;;;;;5053342;28;20400;-74
2022/05/03 12:33:07;;;;;;;7.07;5.30;;;;;;;;;;5052946;28;20412;-73
2022/05/03 12:35:35;;;;;;;9.77;5.83;;;;;;;;;;5052948;28;20456;-74
2022/05/03 12:38:12;;;;;;;11.73;6.40;;;;;;;;;;5053335;28;20415;-73
2022/05/03 12:40:46;;;;;;;8.47;5.50;;;;;;;;;;5052037;28;20404;-73
2022/05/03 12:43:13;;;;;;;7.97;5.83;;;;;;;;;;5058625;28;20412;-74
2022/05/03 12:45:39;;;;;;;9.50;6.50;;;;;;;;;;5051842;28;20775;-74
2022/05/03 12:48:06;;;;;;;7.53;5.90;;;;;;;;;;5051875;28;20408;-74
2022/05/03 12:50:32;;;;;;;6.80;5.33;;;;;;;;;;5053028;28;20405;-74
2022/05/03 12:52:58;;;;;;;7.50;5.57;;;;;;;;;;5052671;28;20889;-73
2022/05/03 12:55:24;;;;;;;6.77;5.80;;;;;;;;;;5052567;28;20466;-73
2022/05/03 13:00:36;;;;;;;11.00;6.23;;;;;;;;;;5052964;28;20504;-73
2022/05/03 13:03:03;;;;;;;9.83;5.63;;;;;;;;;;5052781;28;20893;-73
2022/05/03 13:05:29;;;;;;;9.57;6.20;;;;;;;;;;5052821;28;20522;-73
2022/05/03 13:07:55;;;;;;;5.57;5.07;;;;;;;;;;5053266;28;20487;-74
2022/05/03 13:10:21;;;;;;;9.20;4.73;;;;;;;;;;5052968;28;20919;-74
2022/05/03 13:12:48;;;;;;;6.93;5.40;;;;;;;;;;5055780;28;20409;-73
2022/05/03 13:15:13;;;;;;;6.40;5.00;;;;;;;;;;5062241;28;20446;-73
2022/05/03 13:17:39;;;;;;;5.70;5.07;;;;;;;;;;5062522;28;20777;-74
2022/05/03 13:20:06;;;;;;;6.80;5.37;;;;;;;;;;5061256;28;20416;-73
2022/05/03 13:22:33;;;;;;;8.73;6.87;;;;;;;;;;5062717;28;20479;-74
2022/05/03 13:24:59;;;;;;;9.17;5.63;;;;;;;;;;5062221;28;20440;-73
2022/05/03 13:27:25;;;;;;;6.23;5.63;;;;;;;;;;5061240;28;20420;-73
2022/05/03 13:29:51;;;;;;;6.73;4.63;;;;;;;;;;5061535;28;20432;-73
2022/05/03 13:32:16;;;;;;;5.87;5.23;;;;;;;;;;5052920;28;20421;-73
2022/05/03 13:34:42;;;;;;;6.33;5.73;;;;;;;;;;5052206;28;20847;-73
2022/05/03 13:42:38;;;;;;;8.67;5.67;;;;;;;;;;5062309;28;20504;-73
2022/05/03 13:45:04;;;;;;;7.10;5.00;;;;;;;;;;5059616;28;20538;-74
2022/05/03 13:47:30;;;;;;;8.93;5.13;;;;;;;;;;5072396;28;20416;-73
2022/05/03 13:49:56;;;;;;;7.53;5.10;;;;;;;;;;5072409;28;20450;-73
2022/05/03 13:52:25;;;;;;;7.00;5.03;;;;;;;;;;5072380;28;20466;-73
2022/05/03 13:54:51;;;;;;;6.50;5.03;;;;;;;;;;5072044;28;20423;-74
2022/05/03 13:57:17;;;;;;;6.23;4.27;;;;;;;;;;5072195;28;20477;-74
2022/05/03 13:59:43;;;;;;;5.63;5.00;;;;;;;;;;5070928;28;20416;-74
2022/05/03 14:02:10;;;;;;;5.30;4.80;;;;;;;;;;5072134;28;20936;-74
2022/05/03 14:04:36;;;;;;;8.40;5.50;;;;;;;;;;5071890;28;20931;-74
2022/05/03 14:07:03;;;;;;;6.10;5.03;;;;;;;;;;5071110;28;20541;-74
2022/05/03 14:09:29;;;;;;;7.83;5.77;;;;;;;;;;5072385;28;20430;-73
2022/05/03 14:11:56;;;;;;;8.53;4.80;;;;;;;;;;5072104;28;20422;-74
2022/05/03 14:14:22;;;;;;;6.80;4.93;;;;;;;;;;5071806;28;20427;-74
2022/05/03 14:16:48;;;;;;;5.83;4.43;;;;;;;;;;5072257;28;20536;-74
2022/05/03 14:19:14;;;;;;;5.10;4.60;;;;;;;;;;5072413;28;20403;-74
2022/05/03 14:21:40;;;;;;;8.37;4.60;;;;;;;;;;5072280;28;20404;-74
2022/05/03 14:24:06;;;;;;;6.03;4.20;;;;;;;;;;5073959;28;20457;-74
2022/05/03 14:26:33;;;;;;;10.73;4.43;;;;;;;;;;5074610;28;20438;-74
2022/05/03 14:28:59;;;;;;;8.17;4.77;;;;;;;;;;5074312;28;20436;-74
2022/05/03 14:31:25;;;;;;;6.00;4.10;;;;;;;;;;5075483;28;20490;-74
2022/05/03 14:33:52;;;;;;;5.27;4.80;;;;;;;;;;5075205;28;20439;-74
2022/05/03 14:36:18;;;;;;;5.83;4.00;;;;;;;;;;5075097;28;20498;-74
2022/05/03 14:38:44;;;;;;;8.70;5.10;;;;;;;;;;5075519;28;20895;-74
2022/05/03 14:41:10;;;;;;;7.07;5.03;;;;;;;;;;5074127;28;20447;-74
2022/05/03 14:43:36;;;;;;;5.33;4.10;;;;;;;;;;5074954;28;20467;-74
2022/05/03 14:46:02;;;;;;;7.33;5.13;;;;;;;;;;5075339;28;20416;-75
2022/05/03 14:48:28;;;;;;;5.43;4.23;;;;;;;;;;5075193;28;20919;-74
2022/05/03 14:50:55;;;;;;;5.83;4.20;;;;;;;;;;5075234;28;20428;-74
2022/05/03 14:53:21;;;;;;;7.40;4.57;;;;;;;;;;5072221;28;20415;-74
2022/05/03 15:02:52;;;;;;;8.97;4.20;;;;;;;;;;5059015;28;20530;-75
2022/05/03 15:04:03;;;;;;;5.50;4.33;;;;;;;;;;5062536;28;20498;-76
2022/05/03 15:06:30;;;;;;;6.20;4.80;;;;;;;;;;5058245;28;20435;-76
2022/05/03 15:08:57;;;;;;;5.00;4.50;;;;;;;;;;5068544;28;20411;-75
2022/05/03 15:11:23;;;;;;;7.70;4.23;;;;;;;;;;5057683;28;20421;-75
2022/05/03 15:13:49;;;;;;;5.40;3.90;;;;;;;;;;5052680;28;20448;-73
2022/05/03 15:16:15;;;;;;;7.00;4.00;;;;;;;;;;5052694;28;20547;-73
2022/05/03 15:18:45;;;;;;;5.83;3.67;;;;;;;;;;5052835;28;20439;-73
2022/05/03 15:21:13;;;;;;;5.77;4.00;;;;;;;;;;5053329;28;20420;-73
2022/05/03 15:26:24;;;;;;;6.10;4.03;;;;;;;;;;5054490;28;20994;-73
2022/05/03 15:28:50;;;;;;;4.17;3.63;;;;;;;;;;5071000;28;20484;-73